createdAt,value
2022-12-25T00:00:20.881Z,1012.54
2022-12-25T00:01:17.907Z,1012.53
2022-12-25T00:02:18.029Z,1012.54
2022-12-25T00:03:18.010Z,1012.55
2022-12-25T00:04:17.890Z,1012.55
2022-12-25T00:05:17.878Z,1012.51
2022-12-25T00:06:17.858Z,1012.54
2022-12-25T00:07:17.848Z,1012.56
2022-12-25T00:08:17.839Z,1012.53
2022-12-25T00:09:17.829Z,1012.53
2022-12-25T00:10:17.814Z,1012.52
2022-12-25T00:11:17.829Z,1012.53
2022-12-25T00:12:17.796Z,1012.53
2022-12-25T00:13:17.809Z,1012.54
2022-12-25T00:14:17.797Z,1012.61
2022-12-25T00:15:17.762Z,1012.58
2022-12-25T00:16:17.800Z,1012.55
2022-12-25T00:17:17.747Z,1012.56
2022-12-25T00:18:17.742Z,1012.57
2022-12-25T00:19:17.723Z,1012.57
2022-12-25T00:20:17.716Z,1012.59
2022-12-25T00:21:17.738Z,1012.62
2022-12-25T00:22:17.695Z,1012.61
2022-12-25T00:23:17.692Z,1012.61
2022-12-25T00:24:17.672Z,1012.61
2022-12-25T00:25:17.664Z,1012.56
2022-12-25T00:26:17.709Z,1012.59
2022-12-25T00:27:17.648Z,1012.56
2022-12-25T00:28:17.632Z,1012.53
2022-12-25T00:29:17.648Z,1012.55
2022-12-25T00:30:17.612Z,1012.60
2022-12-25T00:31:17.648Z,1012.60
2022-12-25T00:32:17.594Z,1012.65
2022-12-25T00:33:17.580Z,1012.63
2022-12-25T00:34:17.624Z,1012.61
2022-12-25T00:35:17.575Z,1012.63
2022-12-25T00:36:17.547Z,1012.63
2022-12-25T00:37:17.545Z,1012.61
2022-12-25T00:38:17.535Z,1012.67
2022-12-25T00:39:17.516Z,1012.67
2022-12-25T00:40:17.507Z,1012.69
2022-12-25T00:41:17.497Z,1012.68
2022-12-25T00:42:17.490Z,1012.72
2022-12-25T00:43:17.486Z,1012.73
2022-12-25T00:44:17.462Z,1012.72
2022-12-25T00:45:17.455Z,1012.73
2022-12-25T00:46:17.545Z,1012.73
2022-12-25T00:47:17.489Z,1012.78
2022-12-25T00:48:17.436Z,1012.74
2022-12-25T00:49:17.409Z,1012.74
2022-12-25T00:50:17.403Z,1012.75
2022-12-25T00:51:17.388Z,1012.74
2022-12-25T00:52:17.381Z,1012.76
2022-12-25T00:53:17.369Z,1012.78
2022-12-25T00:54:17.377Z,1012.77
2022-12-25T00:55:17.350Z,1012.83
2022-12-25T00:56:17.337Z,1012.89
2022-12-25T00:57:17.326Z,1012.90
2022-12-25T00:58:17.318Z,1012.93
2022-12-25T00:59:17.303Z,1012.94
2022-12-25T01:00:17.291Z,1012.94
2022-12-25T01:01:17.415Z,1012.98
2022-12-25T01:02:17.477Z,1012.98
2022-12-25T01:03:17.324Z,1012.99
2022-12-25T01:04:17.250Z,1013.01
2022-12-25T01:05:17.246Z,1013.02
2022-12-25T01:06:17.230Z,1013.03
2022-12-25T01:07:17.218Z,1013.02
2022-12-25T01:08:17.205Z,1013.01
2022-12-25T01:09:17.228Z,1013.03
2022-12-25T01:10:17.186Z,1013.02
2022-12-25T01:11:17.175Z,1013.03
2022-12-25T01:12:17.164Z,1013.02
2022-12-25T01:13:17.152Z,1013.08
2022-12-25T01:14:17.146Z,1013.04
2022-12-25T01:15:17.132Z,1013.05
2022-12-25T01:16:17.165Z,1013.16
2022-12-25T01:17:17.115Z,1013.10
2022-12-25T01:18:17.099Z,1013.12
2022-12-25T01:19:17.086Z,1013.11
2022-12-25T01:20:17.076Z,1013.15
2022-12-25T01:21:17.075Z,1013.12
2022-12-25T01:22:17.059Z,1013.14
2022-12-25T01:23:17.083Z,1013.19
2022-12-25T01:24:17.035Z,1013.19
2022-12-25T01:25:17.022Z,1013.25
2022-12-25T01:26:17.013Z,1013.25
2022-12-25T01:27:17.000Z,1013.27
2022-12-25T01:28:16.993Z,1013.30
2022-12-25T01:29:16.981Z,1013.35
2022-12-25T01:30:16.999Z,1013.32
2022-12-25T01:31:17.028Z,1013.34
2022-12-25T01:32:16.946Z,1013.38
2022-12-25T01:33:16.948Z,1013.36
2022-12-25T01:34:16.924Z,1013.36
2022-12-25T01:35:16.927Z,1013.36
2022-12-25T01:36:16.921Z,1013.34
2022-12-25T01:37:16.895Z,1013.39
2022-12-25T01:38:16.881Z,1013.42
2022-12-25T01:39:16.873Z,1013.41
2022-12-25T01:40:16.864Z,1013.44
2022-12-25T01:41:16.850Z,1013.47
2022-12-25T01:42:16.837Z,1013.45
2022-12-25T01:43:18.746Z,1013.51
2022-12-25T01:44:16.820Z,1013.50
2022-12-25T01:45:16.802Z,1013.53
2022-12-25T01:46:16.869Z,1013.54
2022-12-25T01:47:16.895Z,1013.51
2022-12-25T01:48:16.769Z,1013.49
2022-12-25T01:49:16.759Z,1013.45
2022-12-25T01:50:16.752Z,1013.44
2022-12-25T01:51:16.739Z,1013.47
2022-12-25T01:52:21.745Z,1013.46
2022-12-25T01:53:16.987Z,1013.51
2022-12-25T01:54:16.711Z,1013.48
2022-12-25T01:55:16.690Z,1013.45
2022-12-25T01:56:16.689Z,1013.47
2022-12-25T01:57:16.678Z,1013.47
2022-12-25T01:58:16.656Z,1013.45
2022-12-25T01:59:16.645Z,1013.42
2022-12-25T02:00:16.638Z,1013.45
2022-12-25T02:01:16.722Z,1013.46
2022-12-25T02:02:16.688Z,1013.43
2022-12-25T02:03:16.675Z,1013.44
2022-12-25T02:04:16.592Z,1013.50
2022-12-25T02:05:16.577Z,1013.53
2022-12-25T02:06:16.572Z,1013.55
2022-12-25T02:07:16.555Z,1013.58
2022-12-25T02:08:16.723Z,1013.60
2022-12-25T02:09:16.533Z,1013.57
2022-12-25T02:10:16.525Z,1013.58
2022-12-25T02:11:16.524Z,1013.56
2022-12-25T02:12:16.500Z,1013.52
2022-12-25T02:13:16.491Z,1013.58
2022-12-25T02:14:16.479Z,1013.56
2022-12-25T02:15:16.474Z,1013.55
2022-12-25T02:16:16.526Z,1013.53
2022-12-25T02:17:16.471Z,1013.56
2022-12-25T02:18:16.432Z,1013.59
2022-12-25T02:19:16.425Z,1013.58
2022-12-25T02:20:16.407Z,1013.60
2022-12-25T02:21:16.400Z,1013.62
2022-12-25T02:22:16.388Z,1013.62
2022-12-25T02:23:16.377Z,1013.60
2022-12-25T02:24:16.362Z,1013.58
2022-12-25T02:25:16.350Z,1013.56
2022-12-25T02:26:16.365Z,1013.53
2022-12-25T02:27:16.342Z,1013.55
2022-12-25T02:28:16.319Z,1013.57
2022-12-25T02:29:16.309Z,1013.59
2022-12-25T02:30:16.297Z,1013.63
2022-12-25T02:31:16.309Z,1013.65
2022-12-25T02:32:16.341Z,1013.68
2022-12-25T02:33:16.260Z,1013.67
2022-12-25T02:34:16.250Z,1013.70
2022-12-25T02:35:16.257Z,1013.73
2022-12-25T02:36:16.226Z,1013.69
2022-12-25T02:37:16.219Z,1013.72
2022-12-25T02:38:16.233Z,1013.73
2022-12-25T02:39:16.197Z,1013.76
2022-12-25T02:40:16.177Z,1013.75
2022-12-25T02:41:16.171Z,1013.75
2022-12-25T02:42:16.175Z,1013.79
2022-12-25T02:43:16.152Z,1013.77
2022-12-25T02:44:16.135Z,1013.77
2022-12-25T02:45:16.133Z,1013.78
2022-12-25T02:46:16.167Z,1013.77
2022-12-25T02:47:16.100Z,1013.78
2022-12-25T02:48:16.091Z,1013.78
2022-12-25T02:49:16.092Z,1013.78
2022-12-25T02:50:16.074Z,1013.80
2022-12-25T02:51:16.050Z,1013.80
2022-12-25T02:52:16.048Z,1013.79
2022-12-25T02:53:16.030Z,1013.78
2022-12-25T02:54:16.022Z,1013.75
2022-12-25T02:55:16.007Z,1013.74
2022-12-25T02:56:16.004Z,1013.77
2022-12-25T02:57:15.982Z,1013.76
2022-12-25T02:58:15.972Z,1013.75
2022-12-25T02:59:15.960Z,1013.73
2022-12-25T03:00:15.950Z,1013.71
2022-12-25T03:01:16.104Z,1013.75
2022-12-25T03:02:15.954Z,1013.73
2022-12-25T03:03:15.977Z,1013.74
2022-12-25T03:04:15.902Z,1013.76
2022-12-25T03:05:15.891Z,1013.75
2022-12-25T03:06:15.881Z,1013.79
2022-12-25T03:07:15.869Z,1013.73
2022-12-25T03:08:15.861Z,1013.78
2022-12-25T03:09:15.844Z,1013.75
2022-12-25T03:10:15.837Z,1013.73
2022-12-25T03:11:15.822Z,1013.77
2022-12-25T03:12:15.814Z,1013.75
2022-12-25T03:13:15.798Z,1013.74
2022-12-25T03:14:15.787Z,1013.78
2022-12-25T03:15:15.775Z,1013.80
2022-12-25T03:16:15.808Z,1013.81
2022-12-25T03:17:15.749Z,1013.82
2022-12-25T03:18:15.741Z,1013.85
2022-12-25T03:19:15.728Z,1013.85
2022-12-25T03:20:15.716Z,1013.80
2022-12-25T03:21:15.705Z,1013.82
2022-12-25T03:22:15.693Z,1013.80
2022-12-25T03:23:15.685Z,1013.77
2022-12-25T03:24:15.671Z,1013.79
2022-12-25T03:25:15.679Z,1013.82
2022-12-25T03:26:15.644Z,1013.81
2022-12-25T03:27:15.633Z,1013.83
2022-12-25T03:28:15.624Z,1013.83
2022-12-25T03:29:15.613Z,1013.83
2022-12-25T03:30:15.606Z,1013.81
2022-12-25T03:31:15.646Z,1013.82
2022-12-25T03:32:15.596Z,1013.84
2022-12-25T03:33:43.319Z,1013.87
2022-12-25T03:34:15.555Z,1013.91
2022-12-25T03:35:15.540Z,1013.90
2022-12-25T03:36:15.533Z,1013.96
2022-12-25T03:37:15.519Z,1013.92
2022-12-25T03:38:15.504Z,1013.94
2022-12-25T03:39:15.492Z,1013.97
2022-12-25T03:40:15.480Z,1013.99
2022-12-25T03:41:15.477Z,1013.99
2022-12-25T03:42:15.457Z,1014.01
2022-12-25T03:43:15.449Z,1014.01
2022-12-25T03:44:15.434Z,1014.00
2022-12-25T03:45:15.424Z,1014.03
2022-12-25T03:46:15.434Z,1014.02
2022-12-25T03:47:15.399Z,1014.05
2022-12-25T03:48:15.388Z,1014.07
2022-12-25T03:49:15.377Z,1014.03
2022-12-25T03:50:15.381Z,1014.04
2022-12-25T03:51:15.362Z,1014.08
2022-12-25T03:52:15.340Z,1014.06
2022-12-25T03:53:15.332Z,1014.09
2022-12-25T03:54:15.332Z,1014.14
2022-12-25T03:55:15.309Z,1014.17
2022-12-25T03:56:15.293Z,1014.18
2022-12-25T03:57:15.288Z,1014.17
2022-12-25T03:58:15.279Z,1014.24
2022-12-25T03:59:21.078Z,1014.23
2022-12-25T04:00:15.247Z,1014.21
2022-12-25T04:01:15.346Z,1014.20
2022-12-25T04:02:15.438Z,1014.20
2022-12-25T04:03:15.252Z,1014.21
2022-12-25T04:04:15.202Z,1014.21
2022-12-25T04:05:15.190Z,1014.19
2022-12-25T04:06:15.175Z,1014.22
2022-12-25T04:07:15.353Z,1014.22
2022-12-25T04:08:15.145Z,1014.24
2022-12-25T04:09:15.161Z,1014.29
2022-12-25T04:10:15.139Z,1014.33
2022-12-25T04:11:15.120Z,1014.37
2022-12-25T04:12:15.105Z,1014.36
2022-12-25T04:13:15.095Z,1014.36
2022-12-25T04:14:15.079Z,1014.33
2022-12-25T04:15:15.080Z,1014.30
2022-12-25T04:16:15.175Z,1014.30
2022-12-25T04:17:15.182Z,1014.29
2022-12-25T04:18:15.051Z,1014.29
2022-12-25T04:19:15.018Z,1014.30
2022-12-25T04:20:15.165Z,1014.34
2022-12-25T04:21:14.996Z,1014.33
2022-12-25T04:22:15.011Z,1014.33
2022-12-25T04:23:14.971Z,1014.30
2022-12-25T04:24:14.962Z,1014.33
2022-12-25T04:25:14.951Z,1014.32
2022-12-25T04:26:14.943Z,1014.31
2022-12-25T04:27:15.055Z,1014.30
2022-12-25T04:28:14.913Z,1014.30
2022-12-25T04:29:14.905Z,1014.26
2022-12-25T04:30:14.888Z,1014.27
2022-12-25T04:31:14.919Z,1014.24
2022-12-25T04:32:14.867Z,1014.26
2022-12-25T04:33:14.853Z,1014.26
2022-12-25T04:34:14.842Z,1014.27
2022-12-25T04:35:14.825Z,1014.32
2022-12-25T04:36:14.833Z,1014.32
2022-12-25T04:37:14.833Z,1014.32
2022-12-25T04:38:14.803Z,1014.35
2022-12-25T04:39:14.790Z,1014.37
2022-12-25T04:40:14.785Z,1014.34
2022-12-25T04:41:14.759Z,1014.36
2022-12-25T04:42:14.752Z,1014.37
2022-12-25T04:43:14.732Z,1014.37
2022-12-25T04:44:14.721Z,1014.43
2022-12-25T04:45:14.719Z,1014.37
2022-12-25T04:46:14.726Z,1014.40
2022-12-25T04:47:14.685Z,1014.39
2022-12-25T04:48:14.674Z,1014.43
2022-12-25T04:49:14.663Z,1014.39
2022-12-25T04:50:14.647Z,1014.42
2022-12-25T04:51:14.633Z,1014.37
2022-12-25T04:52:14.624Z,1014.36
2022-12-25T04:53:14.617Z,1014.38
2022-12-25T04:54:14.604Z,1014.34
2022-12-25T04:55:14.587Z,1014.34
2022-12-25T04:56:14.579Z,1014.30
2022-12-25T04:57:14.565Z,1014.33
2022-12-25T04:58:14.559Z,1014.34
2022-12-25T04:59:14.545Z,1014.33
2022-12-25T05:00:14.525Z,1014.32
2022-12-25T05:01:14.695Z,1014.34
2022-12-25T05:02:14.630Z,1014.32
2022-12-25T05:03:15.559Z,1014.32
2022-12-25T05:04:14.487Z,1014.31
2022-12-25T05:05:14.467Z,1014.30
2022-12-25T05:06:14.460Z,1014.31
2022-12-25T05:07:14.444Z,1014.29
2022-12-25T05:08:14.431Z,1014.30
2022-12-25T05:09:14.423Z,1014.27
2022-12-25T05:10:14.414Z,1014.26
2022-12-25T05:11:14.394Z,1014.28
2022-12-25T05:12:14.379Z,1014.24
2022-12-25T05:13:14.373Z,1014.25
2022-12-25T05:14:14.361Z,1014.20
2022-12-25T05:15:14.351Z,1014.22
2022-12-25T05:16:14.400Z,1014.18
2022-12-25T05:17:14.322Z,1014.22
2022-12-25T05:18:14.310Z,1014.25
2022-12-25T05:19:14.298Z,1014.27
2022-12-25T05:20:14.288Z,1014.26
2022-12-25T05:21:14.274Z,1014.28
2022-12-25T05:22:14.261Z,1014.34
2022-12-25T05:23:14.249Z,1014.31
2022-12-25T05:24:14.237Z,1014.30
2022-12-25T05:25:14.222Z,1014.31
2022-12-25T05:26:14.224Z,1014.28
2022-12-25T05:27:14.198Z,1014.28
2022-12-25T05:28:14.188Z,1014.25
2022-12-25T05:29:14.179Z,1014.21
2022-12-25T05:30:14.164Z,1014.24
2022-12-25T05:31:14.193Z,1014.28
2022-12-25T05:32:14.149Z,1014.25
2022-12-25T05:33:14.133Z,1014.28
2022-12-25T05:34:14.113Z,1014.28
2022-12-25T05:35:14.111Z,1014.29
2022-12-25T05:36:14.089Z,1014.29
2022-12-25T05:37:14.078Z,1014.29
2022-12-25T05:38:14.066Z,1014.27
2022-12-25T05:39:14.051Z,1014.28
2022-12-25T05:40:14.060Z,1014.28
2022-12-25T05:41:14.025Z,1014.26
2022-12-25T05:42:14.021Z,1014.27
2022-12-25T05:43:14.004Z,1014.28
2022-12-25T05:44:13.999Z,1014.25
2022-12-25T05:45:13.979Z,1014.26
2022-12-25T05:46:14.044Z,1014.28
2022-12-25T05:47:13.974Z,1014.25
2022-12-25T05:48:14.235Z,1014.22
2022-12-25T05:49:13.953Z,1014.20
2022-12-25T05:50:14.070Z,1014.22
2022-12-25T05:51:14.278Z,1014.24
2022-12-25T05:52:14.866Z,1014.21
2022-12-25T05:53:14.193Z,1014.20
2022-12-25T05:54:13.969Z,1014.19
2022-12-25T05:55:15.569Z,1014.20
2022-12-25T05:56:13.967Z,1014.19
2022-12-25T05:57:14.136Z,1014.18
2022-12-25T05:58:14.170Z,1014.17
2022-12-25T05:59:13.935Z,1014.15
2022-12-25T06:00:13.795Z,1014.16
2022-12-25T06:01:13.781Z,1014.13
2022-12-25T06:02:13.860Z,1014.11
2022-12-25T06:03:13.862Z,1014.08
2022-12-25T06:04:13.816Z,1014.04
2022-12-25T06:05:13.732Z,1014.04
2022-12-25T06:06:13.719Z,1013.99
2022-12-25T06:07:13.704Z,1014.01
2022-12-25T06:08:13.691Z,1013.95
2022-12-25T06:09:13.682Z,1013.98
2022-12-25T06:10:13.668Z,1013.96
2022-12-25T06:11:13.656Z,1013.92
2022-12-25T06:12:13.645Z,1013.92
2022-12-25T06:13:13.641Z,1013.87
2022-12-25T06:14:13.638Z,1013.88
2022-12-25T06:15:13.605Z,1013.85
2022-12-25T06:16:13.649Z,1013.86
2022-12-25T06:17:13.590Z,1013.89
2022-12-25T06:18:13.571Z,1013.89
2022-12-25T06:19:13.554Z,1013.91
2022-12-25T06:20:13.545Z,1013.95
2022-12-25T06:21:13.539Z,1013.90
2022-12-25T06:22:13.525Z,1013.89
2022-12-25T06:23:13.537Z,1013.89
2022-12-25T06:24:20.817Z,1013.87
2022-12-25T06:25:13.483Z,1013.89
2022-12-25T06:26:13.467Z,1013.92
2022-12-25T06:27:13.459Z,1013.92
2022-12-25T06:28:13.447Z,1013.95
2022-12-25T06:29:13.433Z,1014.00
2022-12-25T06:30:13.417Z,1014.03
2022-12-25T06:31:13.436Z,1014.03
2022-12-25T06:32:13.391Z,1014.04
2022-12-25T06:33:13.380Z,1014.03
2022-12-25T06:34:13.369Z,1014.00
2022-12-25T06:35:13.352Z,1013.95
2022-12-25T06:36:13.337Z,1013.92
2022-12-25T06:37:13.332Z,1013.93
2022-12-25T06:38:13.317Z,1013.96
2022-12-25T06:39:13.304Z,1013.93
2022-12-25T06:40:13.290Z,1013.95
2022-12-25T06:41:13.285Z,1013.92
2022-12-25T06:42:13.266Z,1013.99
2022-12-25T06:43:13.278Z,1013.99
2022-12-25T06:44:13.250Z,1014.03
2022-12-25T06:45:13.226Z,1014.05
2022-12-25T06:46:13.310Z,1014.06
2022-12-25T06:47:13.204Z,1014.07
2022-12-25T06:48:13.189Z,1013.99
2022-12-25T06:49:13.185Z,1014.01
2022-12-25T06:50:13.165Z,1014.03
2022-12-25T06:51:13.152Z,1013.99
2022-12-25T06:52:13.141Z,1014.02
2022-12-25T06:53:13.192Z,1014.04
2022-12-25T06:54:13.115Z,1014.08
2022-12-25T06:55:13.107Z,1014.14
2022-12-25T06:56:13.094Z,1014.15
2022-12-25T06:57:13.076Z,1014.12
2022-12-25T06:58:13.064Z,1014.18
2022-12-25T06:59:13.052Z,1014.17
2022-12-25T07:00:13.040Z,1014.15
2022-12-25T07:01:13.092Z,1014.21
2022-12-25T07:02:13.090Z,1014.23
2022-12-25T07:03:13.090Z,1014.31
2022-12-25T07:04:12.996Z,1014.28
2022-12-25T07:05:12.974Z,1014.26
2022-12-25T07:06:12.970Z,1014.24
2022-12-25T07:07:12.948Z,1014.19
2022-12-25T07:08:12.937Z,1014.19
2022-12-25T07:09:12.930Z,1014.22
2022-12-25T07:10:12.916Z,1014.22
2022-12-25T07:11:12.900Z,1014.23
2022-12-25T07:12:12.885Z,1014.31
2022-12-25T07:13:12.876Z,1014.31
2022-12-25T07:14:12.863Z,1014.34
2022-12-25T07:15:12.848Z,1014.35
2022-12-25T07:16:12.931Z,1014.38
2022-12-25T07:17:12.825Z,1014.47
2022-12-25T07:18:13.008Z,1014.49
2022-12-25T07:19:12.797Z,1014.54
2022-12-25T07:20:12.807Z,1014.57
2022-12-25T07:21:12.778Z,1014.59
2022-12-25T07:22:12.758Z,1014.56
2022-12-25T07:23:12.755Z,1014.52
2022-12-25T07:24:12.733Z,1014.52
2022-12-25T07:25:12.725Z,1014.52
2022-12-25T07:26:12.709Z,1014.49
2022-12-25T07:27:12.696Z,1014.53
2022-12-25T07:28:12.684Z,1014.54
2022-12-25T07:29:12.678Z,1014.59
2022-12-25T07:30:12.663Z,1014.59
2022-12-25T07:31:12.765Z,1014.64
2022-12-25T07:32:12.682Z,1014.63
2022-12-25T07:33:12.628Z,1014.63
2022-12-25T07:34:12.614Z,1014.63
2022-12-25T07:35:12.594Z,1014.67
2022-12-25T07:36:13.379Z,1014.70
2022-12-25T07:37:12.571Z,1014.71
2022-12-25T07:38:12.558Z,1014.71
2022-12-25T07:39:12.546Z,1014.66
2022-12-25T07:40:12.531Z,1014.69
2022-12-25T07:41:12.521Z,1014.65
2022-12-25T07:42:12.503Z,1014.64
2022-12-25T07:43:12.496Z,1014.64
2022-12-25T07:44:12.488Z,1014.61
2022-12-25T07:45:12.474Z,1014.65
2022-12-25T07:46:12.577Z,1014.63
2022-12-25T07:47:12.446Z,1014.61
2022-12-25T07:48:16.701Z,1014.57
2022-12-25T07:49:12.614Z,1014.54
2022-12-25T07:50:12.412Z,1014.52
2022-12-25T07:51:12.396Z,1014.50
2022-12-25T07:52:12.382Z,1014.51
2022-12-25T07:53:12.367Z,1014.49
2022-12-25T07:54:12.392Z,1014.53
2022-12-25T07:55:12.347Z,1014.57
2022-12-25T07:56:12.332Z,1014.55
2022-12-25T07:57:12.346Z,1014.53
2022-12-25T07:58:12.311Z,1014.55
2022-12-25T07:59:12.306Z,1014.57
2022-12-25T08:00:12.284Z,1014.56
2022-12-25T08:01:12.420Z,1014.58
2022-12-25T08:02:12.541Z,1014.60
2022-12-25T08:03:12.452Z,1014.60
2022-12-25T08:04:12.317Z,1014.61
2022-12-25T08:05:12.223Z,1014.66
2022-12-25T08:06:12.206Z,1014.62
2022-12-25T08:07:12.194Z,1014.61
2022-12-25T08:08:12.191Z,1014.62
2022-12-25T08:09:12.173Z,1014.62
2022-12-25T08:10:12.156Z,1014.62
2022-12-25T08:11:12.155Z,1014.56
2022-12-25T08:12:12.132Z,1014.61
2022-12-25T08:13:14.554Z,1014.61
2022-12-25T08:14:12.107Z,1014.61
2022-12-25T08:15:12.147Z,1014.59
2022-12-25T08:16:12.228Z,1014.60
2022-12-25T08:17:12.094Z,1014.60
2022-12-25T08:18:12.059Z,1014.65
2022-12-25T08:19:12.056Z,1014.65
2022-12-25T08:20:12.037Z,1014.69
2022-12-25T08:21:12.047Z,1014.74
2022-12-25T08:22:12.017Z,1014.78
2022-12-25T08:23:12.001Z,1014.80
2022-12-25T08:24:11.984Z,1014.85
2022-12-25T08:25:11.976Z,1014.82
2022-12-25T08:26:11.960Z,1014.81
2022-12-25T08:27:11.948Z,1014.77
2022-12-25T08:28:11.936Z,1014.75
2022-12-25T08:29:11.925Z,1014.72
2022-12-25T08:30:11.914Z,1014.78
2022-12-25T08:31:12.034Z,1014.75
2022-12-25T08:32:11.895Z,1014.75
2022-12-25T08:33:11.878Z,1014.80
2022-12-25T08:34:11.892Z,1014.74
2022-12-25T08:35:11.848Z,1014.76
2022-12-25T08:36:11.848Z,1014.76
2022-12-25T08:37:11.826Z,1014.74
2022-12-25T08:38:11.822Z,1014.76
2022-12-25T08:39:11.998Z,1014.71
2022-12-25T08:40:11.792Z,1014.71
2022-12-25T08:41:11.786Z,1014.68
2022-12-25T08:42:11.783Z,1014.64
2022-12-25T08:43:11.804Z,1014.62
2022-12-25T08:44:11.757Z,1014.62
2022-12-25T08:45:11.729Z,1014.61
2022-12-25T08:46:11.780Z,1014.54
2022-12-25T08:47:11.703Z,1014.55
2022-12-25T08:48:11.693Z,1014.55
2022-12-25T08:49:11.683Z,1014.57
2022-12-25T08:50:11.669Z,1014.59
2022-12-25T08:51:11.657Z,1014.54
2022-12-25T08:52:11.654Z,1014.56
2022-12-25T08:53:11.633Z,1014.53
2022-12-25T08:54:11.635Z,1014.50
2022-12-25T08:55:11.607Z,1014.51
2022-12-25T08:56:11.598Z,1014.46
2022-12-25T08:57:11.605Z,1014.50
2022-12-25T08:58:11.580Z,1014.46
2022-12-25T08:59:11.561Z,1014.44
2022-12-25T09:00:11.550Z,1014.43
2022-12-25T09:01:11.596Z,1014.39
2022-12-25T09:02:11.684Z,1014.33
2022-12-25T09:03:11.577Z,1014.33
2022-12-25T09:04:11.540Z,1014.33
2022-12-25T09:05:11.488Z,1014.26
2022-12-25T09:06:11.481Z,1014.24
2022-12-25T09:07:11.464Z,1014.15
2022-12-25T09:08:11.460Z,1014.14
2022-12-25T09:09:11.518Z,1014.16
2022-12-25T09:10:11.430Z,1014.12
2022-12-25T09:11:11.435Z,1014.17
2022-12-25T09:12:11.400Z,1014.16
2022-12-25T09:13:11.424Z,1014.10
2022-12-25T09:14:11.389Z,1014.11
2022-12-25T09:15:11.370Z,1014.11
2022-12-25T09:16:11.396Z,1014.12
2022-12-25T09:17:11.353Z,1014.12
2022-12-25T09:18:11.333Z,1014.11
2022-12-25T09:19:11.320Z,1014.05
2022-12-25T09:20:11.311Z,1014.03
2022-12-25T09:21:11.304Z,1014.03
2022-12-25T09:22:11.292Z,1014.01
2022-12-25T09:23:14.044Z,1014.03
2022-12-25T09:24:11.263Z,1014.06
2022-12-25T09:25:11.251Z,1014.06
2022-12-25T09:26:11.253Z,1014.06
2022-12-25T09:27:11.234Z,1014.08
2022-12-25T09:28:11.219Z,1014.08
2022-12-25T09:29:11.202Z,1014.07
2022-12-25T09:30:11.199Z,1014.10
2022-12-25T09:31:11.212Z,1014.12
2022-12-25T09:32:11.164Z,1014.07
2022-12-25T09:33:11.177Z,1014.10
2022-12-25T09:34:16.947Z,1014.11
2022-12-25T09:35:11.190Z,1014.13
2022-12-25T09:36:11.209Z,1014.14
2022-12-25T09:37:11.134Z,1014.22
2022-12-25T09:38:11.099Z,1014.17
2022-12-25T09:39:11.096Z,1014.17
2022-12-25T09:40:11.076Z,1014.14
2022-12-25T09:41:11.066Z,1014.14
2022-12-25T09:42:11.059Z,1014.11
2022-12-25T09:43:11.039Z,1014.14
2022-12-25T09:44:11.027Z,1014.12
2022-12-25T09:45:11.020Z,1014.10
2022-12-25T09:46:11.103Z,1014.06
2022-12-25T09:47:11.008Z,1014.03
2022-12-25T09:48:11.001Z,1013.99
2022-12-25T09:49:10.981Z,1013.96
2022-12-25T09:50:11.045Z,1014.00
2022-12-25T09:51:10.951Z,1014.00
2022-12-25T09:52:10.940Z,1013.99
2022-12-25T09:53:10.933Z,1014.01
2022-12-25T09:54:10.939Z,1014.00
2022-12-25T09:55:14.820Z,1014.07
2022-12-25T09:56:10.899Z,1014.13
2022-12-25T09:57:10.891Z,1014.10
2022-12-25T09:58:10.903Z,1014.08
2022-12-25T09:59:10.863Z,1014.11
2022-12-25T10:00:10.850Z,1014.12
2022-12-25T10:01:10.864Z,1014.20
2022-12-25T10:02:10.945Z,1014.12
2022-12-25T10:03:10.990Z,1014.16
2022-12-25T10:04:10.803Z,1014.23
2022-12-25T10:05:10.795Z,1014.22
2022-12-25T10:06:10.785Z,1014.19
2022-12-25T10:07:10.785Z,1014.17
2022-12-25T10:08:10.779Z,1014.17
2022-12-25T10:09:11.672Z,1014.14
2022-12-25T10:10:10.754Z,1014.15
2022-12-25T10:11:10.727Z,1014.19
2022-12-25T10:12:10.719Z,1014.16
2022-12-25T10:13:10.722Z,1014.19
2022-12-25T10:14:10.697Z,1014.21
2022-12-25T10:15:10.681Z,1014.19
2022-12-25T10:16:10.732Z,1014.22
2022-12-25T10:17:10.664Z,1014.27
2022-12-25T10:18:10.649Z,1014.25
2022-12-25T10:19:10.645Z,1014.23
2022-12-25T10:20:10.626Z,1014.22
2022-12-25T10:21:13.203Z,1014.23
2022-12-25T10:22:10.605Z,1014.25
2022-12-25T10:23:10.596Z,1014.26
2022-12-25T10:24:10.584Z,1014.26
2022-12-25T10:25:10.573Z,1014.26
2022-12-25T10:26:10.562Z,1014.21
2022-12-25T10:27:10.559Z,1014.15
2022-12-25T10:28:10.542Z,1014.09
2022-12-25T10:29:10.529Z,1014.05
2022-12-25T10:30:10.519Z,1014.02
2022-12-25T10:31:10.526Z,1014.00
2022-12-25T10:32:10.498Z,1013.97
2022-12-25T10:33:16.670Z,1014.00
2022-12-25T10:34:10.474Z,1013.97
2022-12-25T10:35:10.466Z,1013.93
2022-12-25T10:36:10.452Z,1013.94
2022-12-25T10:37:10.444Z,1013.89
2022-12-25T10:38:10.428Z,1013.87
2022-12-25T10:39:10.419Z,1013.82
2022-12-25T10:40:10.410Z,1013.83
2022-12-25T10:41:10.400Z,1013.81
2022-12-25T10:42:10.493Z,1013.78
2022-12-25T10:43:10.440Z,1013.79
2022-12-25T10:44:10.369Z,1013.77
2022-12-25T10:45:10.360Z,1013.72
2022-12-25T10:46:10.374Z,1013.73
2022-12-25T10:47:10.350Z,1013.72
2022-12-25T10:48:10.325Z,1013.74
2022-12-25T10:49:10.315Z,1013.72
2022-12-25T10:50:10.309Z,1013.75
2022-12-25T10:51:10.293Z,1013.75
2022-12-25T10:52:10.281Z,1013.72
2022-12-25T10:53:10.272Z,1013.67
2022-12-25T10:54:10.259Z,1013.62
2022-12-25T10:55:10.251Z,1013.60
2022-12-25T10:56:10.239Z,1013.63
2022-12-25T10:57:10.229Z,1013.61
2022-12-25T10:58:10.217Z,1013.60
2022-12-25T10:59:10.206Z,1013.57
2022-12-25T11:00:10.204Z,1013.57
2022-12-25T11:01:10.186Z,1013.58
2022-12-25T11:02:10.378Z,1013.57
2022-12-25T11:03:10.289Z,1013.63
2022-12-25T11:04:10.193Z,1013.69
2022-12-25T11:05:10.151Z,1013.65
2022-12-25T11:06:10.135Z,1013.71
2022-12-25T11:07:10.119Z,1013.71
2022-12-25T11:08:10.110Z,1013.75
2022-12-25T11:09:10.100Z,1013.72
2022-12-25T11:10:10.103Z,1013.67
2022-12-25T11:11:10.079Z,1013.68
2022-12-25T11:12:10.064Z,1013.68
2022-12-25T11:13:10.060Z,1013.71
2022-12-25T11:14:10.044Z,1013.73
2022-12-25T11:15:10.039Z,1013.75
2022-12-25T11:16:10.057Z,1013.73
2022-12-25T11:17:10.035Z,1013.73
2022-12-25T11:18:10.007Z,1013.72
2022-12-25T11:19:09.991Z,1013.72
2022-12-25T11:20:09.979Z,1013.71
2022-12-25T11:21:09.972Z,1013.71
2022-12-25T11:22:09.959Z,1013.71
2022-12-25T11:23:09.950Z,1013.70
2022-12-25T11:24:09.939Z,1013.73
2022-12-25T11:25:09.929Z,1013.71
2022-12-25T11:26:09.916Z,1013.72
2022-12-25T11:27:09.909Z,1013.69
2022-12-25T11:28:09.899Z,1013.69
2022-12-25T11:29:09.887Z,1013.67
2022-12-25T11:30:12.700Z,1013.73
2022-12-25T11:31:09.958Z,1013.72
2022-12-25T11:32:09.853Z,1013.81
2022-12-25T11:33:09.842Z,1013.81
2022-12-25T11:34:09.829Z,1013.85
2022-12-25T11:35:09.820Z,1013.86
2022-12-25T11:36:09.810Z,1013.84
2022-12-25T11:37:09.801Z,1013.81
2022-12-25T11:38:09.788Z,1013.71
2022-12-25T11:39:09.777Z,1013.60
2022-12-25T11:40:09.771Z,1013.49
2022-12-25T11:41:09.758Z,1013.43
2022-12-25T11:42:09.748Z,1013.43
2022-12-25T11:43:09.743Z,1013.45
2022-12-25T11:44:09.731Z,1013.44
2022-12-25T11:45:09.716Z,1013.44
2022-12-25T11:46:09.722Z,1013.42
2022-12-25T11:47:09.696Z,1013.37
2022-12-25T11:48:09.684Z,1013.31
2022-12-25T11:49:09.680Z,1013.27
2022-12-25T11:50:09.662Z,1013.21
2022-12-25T11:51:09.660Z,1013.12
2022-12-25T11:52:09.651Z,1013.07
2022-12-25T11:53:09.632Z,1012.97
2022-12-25T11:54:09.619Z,1012.86
2022-12-25T11:55:09.610Z,1012.77
2022-12-25T11:56:09.597Z,1012.70
2022-12-25T11:57:09.587Z,1012.62
2022-12-25T11:58:09.578Z,1012.57
2022-12-25T11:59:13.651Z,1012.56
2022-12-25T12:00:09.555Z,1012.49
2022-12-25T12:01:09.544Z,1012.46
2022-12-25T12:02:09.623Z,1012.45
2022-12-25T12:03:09.704Z,1012.47
2022-12-25T12:04:09.596Z,1012.46
2022-12-25T12:05:09.498Z,1012.51